createdAt,value
2022-10-19T00:01:11.546Z,61.80
2022-10-19T00:03:39.487Z,61.75
2022-10-19T00:06:26.067Z,61.93
2022-10-19T00:08:59.206Z,61.61
2022-10-19T00:11:27.153Z,61.81
2022-10-19T00:13:55.648Z,62.09
2022-10-19T00:16:23.766Z,61.47
2022-10-19T00:18:50.746Z,61.57
2022-10-19T00:21:19.587Z,61.24
2022-10-19T00:23:46.896Z,61.23
2022-10-19T00:26:14.451Z,61.46
2022-10-19T00:28:43.019Z,61.46
2022-10-19T00:31:13.647Z,61.83
2022-10-19T00:33:41.508Z,62.21
2022-10-19T00:36:16.505Z,61.88
2022-10-19T00:38:43.666Z,61.81
2022-10-19T00:41:10.825Z,62.30
2022-10-19T00:43:58.106Z,62.64
2022-10-19T00:46:26.525Z,62.68
2022-10-19T00:49:01.268Z,62.66
2022-10-19T00:51:30.245Z,62.33
2022-10-19T00:53:57.444Z,62.60
2022-10-19T00:56:24.946Z,62.59
2022-10-19T00:58:52.094Z,62.68
2022-10-19T01:01:22.461Z,62.44
2022-10-19T01:03:49.785Z,62.63
2022-10-19T01:06:18.727Z,62.49
2022-10-19T01:08:45.827Z,62.65
2022-10-19T01:11:40.308Z,62.48
2022-10-19T01:14:34.508Z,62.60
2022-10-19T01:17:20.066Z,62.33
2022-10-19T01:20:08.426Z,62.58
2022-10-19T01:22:41.525Z,62.57
2022-10-19T01:25:44.113Z,62.76
2022-10-19T01:28:11.094Z,62.82
2022-10-19T01:30:57.285Z,63.04
2022-10-19T01:33:46.337Z,62.75
2022-10-19T01:36:41.989Z,62.52
2022-10-19T01:39:18.448Z,62.32
2022-10-19T01:42:02.185Z,62.27
2022-10-19T01:44:43.207Z,62.36
2022-10-19T01:47:26.386Z,61.99
2022-10-19T01:50:06.325Z,62.37
2022-10-19T01:52:34.314Z,61.98
2022-10-19T01:55:04.551Z,61.93
2022-10-19T01:57:39.024Z,61.42
2022-10-19T02:00:08.447Z,61.74
2022-10-19T02:02:48.127Z,61.15
2022-10-19T02:05:18.624Z,61.00
2022-10-19T02:07:50.994Z,60.94
2022-10-19T02:10:19.625Z,61.59
2022-10-19T02:12:48.265Z,61.34
2022-10-19T02:15:19.726Z,61.43
2022-10-19T02:17:50.825Z,61.84
2022-10-19T02:20:18.006Z,62.07
2022-10-19T02:22:45.165Z,61.90
2022-10-19T02:25:13.165Z,62.37
2022-10-19T02:27:44.266Z,62.48
2022-10-19T02:30:14.865Z,62.73
2022-10-19T02:32:43.587Z,62.48
2022-10-19T02:35:12.185Z,62.54
2022-10-19T02:37:40.664Z,62.06
2022-10-19T02:40:08.549Z,62.28
2022-10-19T02:42:48.826Z,61.71
2022-10-19T02:45:29.565Z,61.91
2022-10-19T02:48:02.465Z,61.56
2022-10-19T02:50:29.705Z,61.56
2022-10-19T02:52:59.105Z,62.10
2022-10-19T02:55:26.545Z,61.86
2022-10-19T02:57:54.006Z,61.70
2022-10-19T03:00:21.025Z,61.55
2022-10-19T03:02:48.525Z,61.77
2022-10-19T03:05:15.616Z,61.87
2022-10-19T03:07:43.145Z,61.57
2022-10-19T03:10:10.346Z,61.69
2022-10-19T03:12:37.305Z,61.61
2022-10-19T03:15:05.325Z,61.37
2022-10-19T03:17:32.628Z,62.00
2022-10-19T03:19:59.885Z,62.18
2022-10-19T03:22:26.865Z,61.87
2022-10-19T03:24:53.907Z,61.93
2022-10-19T03:27:20.887Z,61.52
2022-10-19T03:29:47.866Z,62.07
2022-10-19T03:32:14.988Z,62.18
2022-10-19T03:34:42.074Z,61.89
2022-10-19T03:37:09.044Z,62.26
2022-10-19T03:39:36.146Z,62.58
2022-10-19T03:42:03.186Z,62.86
2022-10-19T03:44:30.085Z,63.07
2022-10-19T03:46:57.226Z,63.57
2022-10-19T03:49:24.347Z,63.81
2022-10-19T03:51:51.306Z,63.83
2022-10-19T03:54:18.528Z,63.89
2022-10-19T03:56:45.827Z,63.51
2022-10-19T03:59:15.990Z,63.55
2022-10-19T04:01:45.393Z,63.97
2022-10-19T04:04:15.707Z,64.25
2022-10-19T04:06:45.686Z,63.90
2022-10-19T04:09:15.465Z,63.98
2022-10-19T04:11:43.105Z,63.92
2022-10-19T04:14:22.852Z,63.87
2022-10-19T04:17:01.411Z,63.99
2022-10-19T04:19:28.475Z,64.04
2022-10-19T04:21:55.607Z,64.01
2022-10-19T04:24:23.267Z,63.85
2022-10-19T04:26:52.766Z,64.08
2022-10-19T04:29:23.728Z,64.13
2022-10-19T04:31:53.605Z,63.99
2022-10-19T04:34:20.821Z,64.01
2022-10-19T04:36:47.846Z,63.80
2022-10-19T04:39:15.386Z,63.94
2022-10-19T04:41:42.533Z,64.21
2022-10-19T04:44:09.988Z,64.08
2022-10-19T04:46:37.780Z,64.17
2022-10-19T04:49:06.449Z,64.21
2022-10-19T04:51:33.690Z,63.92
2022-10-19T04:54:02.408Z,63.95
2022-10-19T04:56:30.987Z,63.86
2022-10-19T04:58:59.565Z,64.18
2022-10-19T05:01:28.908Z,63.85
2022-10-19T05:04:03.381Z,64.55
2022-10-19T05:06:32.130Z,64.26
2022-10-19T05:09:00.277Z,64.04
2022-10-19T05:11:28.056Z,64.14
2022-10-19T05:13:56.666Z,64.23
2022-10-19T05:16:25.128Z,64.16
2022-10-19T05:18:56.947Z,64.36
2022-10-19T05:21:24.027Z,64.35
2022-10-19T05:23:53.330Z,64.14
2022-10-19T05:26:23.269Z,64.36
2022-10-19T05:28:56.824Z,64.85
2022-10-19T05:31:27.789Z,64.53
2022-10-19T05:33:56.630Z,64.34
2022-10-19T05:36:26.980Z,64.59
2022-10-19T05:38:57.272Z,64.83
2022-10-19T05:41:25.910Z,64.90
2022-10-19T05:43:55.110Z,64.52
2022-10-19T05:46:22.570Z,64.34
2022-10-19T05:48:49.694Z,64.51
2022-10-19T05:51:19.930Z,64.93
2022-10-19T05:53:47.270Z,64.70
2022-10-19T05:56:17.549Z,64.88
2022-10-19T05:58:45.009Z,64.66
2022-10-19T06:01:13.147Z,64.91
2022-10-19T06:03:40.527Z,65.45
2022-10-19T06:06:09.271Z,65.60
2022-10-19T06:08:36.946Z,65.01
2022-10-19T06:11:14.329Z,64.69
2022-10-19T06:13:43.165Z,64.92
2022-10-19T06:16:11.966Z,64.69
2022-10-19T06:18:39.546Z,64.66
2022-10-19T06:21:12.988Z,64.07
2022-10-19T06:26:29.667Z,63.41
2022-10-19T06:29:00.793Z,63.46
2022-10-19T06:31:30.047Z,63.07
2022-10-19T06:33:57.447Z,63.38
2022-10-19T06:36:27.851Z,63.13
2022-10-19T06:38:56.786Z,63.07
2022-10-19T06:41:24.216Z,62.74
2022-10-19T06:43:52.586Z,62.62
2022-10-19T06:46:22.318Z,62.57
2022-10-19T06:49:00.647Z,63.10
2022-10-19T06:51:29.372Z,63.00
2022-10-19T06:53:57.184Z,63.33
2022-10-19T06:56:25.875Z,64.34
2022-10-19T06:58:54.012Z,64.59
2022-10-19T07:01:21.984Z,64.40
2022-10-19T07:03:52.006Z,64.47
2022-10-19T07:06:19.969Z,64.42
2022-10-19T07:08:46.986Z,64.45
2022-10-19T07:11:19.180Z,64.45
2022-10-19T07:13:46.427Z,64.25
2022-10-19T07:16:19.607Z,64.20
2022-10-19T07:18:49.650Z,64.52
2022-10-19T07:21:17.446Z,64.40
2022-10-19T07:23:45.809Z,64.24
2022-10-19T07:26:23.580Z,64.07
2022-10-19T07:28:51.046Z,63.54
2022-10-19T07:31:20.758Z,64.22
2022-10-19T07:33:52.447Z,64.23
2022-10-19T07:36:19.565Z,63.55
2022-10-19T07:38:46.527Z,63.90
2022-10-19T07:41:16.085Z,63.57
2022-10-19T07:43:45.067Z,63.29
2022-10-19T07:46:24.166Z,63.44
2022-10-19T07:48:51.450Z,63.17
2022-10-19T07:51:20.009Z,62.63
2022-10-19T07:53:47.528Z,62.47
2022-10-19T07:56:17.570Z,62.47
2022-10-19T07:58:44.587Z,62.28
2022-10-19T08:01:15.065Z,62.29
2022-10-19T08:04:42.880Z,62.54
2022-10-19T08:06:29.805Z,61.99
2022-10-19T08:08:56.970Z,61.38
2022-10-19T08:11:27.866Z,61.53
2022-10-19T08:13:55.866Z,61.47
2022-10-19T08:16:33.309Z,61.72
2022-10-19T08:19:04.445Z,60.91
2022-10-19T08:21:31.667Z,61.99
2022-10-19T08:23:59.027Z,62.52
2022-10-19T08:26:29.858Z,61.47
2022-10-19T08:29:05.549Z,62.19
2022-10-19T08:31:33.026Z,62.17
2022-10-19T08:34:00.027Z,61.34
2022-10-19T08:36:27.786Z,61.51
2022-10-19T08:38:54.946Z,61.36
2022-10-19T08:41:39.969Z,61.43
2022-10-19T08:44:27.229Z,61.17
2022-10-19T08:47:23.742Z,60.15
2022-10-19T08:49:51.427Z,59.87
2022-10-19T08:52:21.986Z,58.87
2022-10-19T08:54:57.994Z,58.98
2022-10-19T08:57:33.814Z,58.96
2022-10-19T09:00:17.732Z,58.72
2022-10-19T09:02:59.932Z,58.54
2022-10-19T09:05:39.885Z,57.98
2022-10-19T09:08:12.101Z,57.56
2022-10-19T09:10:44.054Z,56.89
2022-10-19T09:13:19.627Z,56.73
2022-10-19T09:15:49.369Z,56.24
2022-10-19T09:18:29.526Z,56.76
2022-10-19T09:21:07.149Z,56.14
2022-10-19T09:23:43.587Z,55.85
2022-10-19T09:26:23.128Z,55.44
2022-10-19T09:29:26.729Z,55.32
2022-10-19T09:34:30.105Z,55.04
2022-10-19T09:36:59.374Z,55.03
2022-10-19T09:39:29.652Z,54.53
2022-10-19T09:42:10.606Z,54.36
2022-10-19T09:44:37.946Z,53.54
2022-10-19T09:47:37.009Z,53.22
2022-10-19T09:50:10.135Z,53.14
2022-10-19T09:52:39.685Z,52.89
2022-10-19T09:55:09.764Z,52.05
2022-10-19T09:57:46.209Z,51.53
2022-10-19T10:00:20.730Z,51.49
2022-10-19T10:02:52.796Z,51.40
2022-10-19T10:05:21.767Z,51.18
2022-10-19T10:07:54.949Z,51.13
2022-10-19T10:10:28.220Z,51.31
2022-10-19T10:13:01.227Z,50.99
2022-10-19T10:15:35.506Z,50.44
2022-10-19T10:18:03.286Z,50.12
2022-10-19T10:20:32.688Z,50.23
2022-10-19T10:23:04.469Z,50.27
2022-10-19T10:25:34.206Z,50.67
2022-10-19T10:28:04.370Z,50.56
2022-10-19T10:30:37.106Z,51.38
2022-10-19T10:33:21.163Z,51.74
2022-10-19T10:35:56.055Z,51.89
2022-10-19T10:38:28.675Z,51.46
2022-10-19T10:41:12.987Z,51.29
2022-10-19T10:46:55.914Z,51.34
2022-10-19T10:49:33.026Z,51.98
2022-10-19T10:52:28.334Z,51.29
2022-10-19T10:55:08.709Z,51.11
2022-10-19T10:57:44.505Z,51.06
2022-10-19T11:00:19.169Z,50.76
2022-10-19T11:13:37.808Z,51.62
2022-10-19T11:16:25.586Z,52.29
2022-10-19T11:19:00.950Z,52.55
2022-10-19T11:21:45.706Z,52.38
2022-10-19T11:24:34.269Z,52.62
2022-10-19T11:27:06.988Z,52.00
2022-10-19T11:29:42.707Z,52.27
2022-10-19T11:32:33.184Z,50.60
2022-10-19T11:35:26.188Z,50.17
2022-10-19T11:38:29.624Z,49.90
2022-10-19T11:41:19.170Z,49.74
2022-10-19T11:44:12.327Z,49.06
2022-10-19T11:47:08.350Z,49.24
2022-10-19T11:49:43.306Z,48.04
2022-10-19T11:52:28.587Z,47.96
2022-10-19T11:55:14.050Z,47.70
2022-10-19T11:57:43.807Z,46.71
2022-10-19T12:00:27.181Z,45.54
2022-10-19T12:03:17.568Z,46.38
2022-10-19T12:05:53.428Z,46.49
2022-10-19T12:08:52.513Z,46.99
2022-10-19T12:11:38.678Z,47.64
2022-10-19T12:14:12.947Z,47.98
2022-10-19T12:16:46.973Z,49.19
2022-10-19T12:19:23.166Z,49.90
2022-10-19T12:21:51.950Z,49.58
2022-10-19T12:24:23.567Z,49.48
2022-10-19T12:26:52.187Z,49.71
2022-10-19T12:29:32.106Z,50.16
2022-10-19T12:32:01.306Z,50.12
2022-10-19T12:34:47.346Z,49.95
2022-10-19T12:37:33.092Z,50.19
2022-10-19T12:40:24.709Z,50.23
2022-10-19T12:43:11.267Z,49.74
2022-10-19T12:45:48.287Z,50.07
2022-10-19T12:48:19.272Z,50.56
2022-10-19T12:50:49.311Z,50.93
2022-10-19T12:56:13.285Z,50.91
2022-10-19T12:58:47.971Z,51.47
2022-10-19T13:01:28.792Z,51.46
2022-10-19T13:04:15.488Z,50.92
2022-10-19T13:06:47.590Z,50.91
2022-10-19T13:09:35.609Z,50.73
2022-10-19T13:12:17.949Z,49.39
2022-10-19T13:14:54.847Z,46.80
2022-10-19T13:17:34.379Z,46.11
2022-10-19T13:20:13.677Z,45.15
2022-10-19T13:22:46.447Z,44.62
2022-10-19T13:25:23.741Z,44.66
2022-10-19T13:28:02.342Z,44.53
2022-10-19T13:30:38.589Z,44.44
2022-10-19T13:33:30.550Z,44.79
2022-10-19T13:36:00.512Z,44.89
2022-10-19T13:38:43.826Z,44.90
2022-10-19T13:41:28.885Z,45.28
2022-10-19T13:44:03.853Z,45.36
2022-10-19T13:46:30.849Z,45.52
2022-10-19T13:49:15.916Z,46.00
2022-10-19T13:52:01.285Z,46.56
2022-10-19T13:55:03.827Z,46.25
2022-10-19T13:58:14.947Z,46.62
2022-10-19T14:01:09.148Z,46.61
2022-10-19T14:04:13.006Z,47.73
2022-10-19T14:06:48.277Z,47.50
2022-10-19T14:09:28.407Z,47.53
2022-10-19T14:12:06.976Z,47.47
2022-10-19T14:14:43.198Z,48.01
2022-10-19T14:17:19.988Z,48.02
2022-10-19T14:19:53.969Z,48.54
2022-10-19T14:22:36.264Z,48.27
2022-10-19T14:25:11.428Z,48.17
2022-10-19T14:27:38.866Z,48.40
2022-10-19T14:30:06.916Z,48.48
2022-10-19T14:32:34.312Z,48.68
2022-10-19T14:35:17.652Z,49.36
2022-10-19T14:37:45.007Z,49.19
2022-10-19T14:40:32.426Z,49.45
2022-10-19T14:43:01.185Z,49.99
2022-10-19T14:45:30.965Z,50.15
2022-10-19T14:48:03.571Z,49.73
2022-10-19T14:50:42.881Z,49.50
2022-10-19T14:53:40.006Z,49.45
2022-10-19T14:56:19.087Z,49.34
2022-10-19T14:58:59.214Z,49.56
2022-10-19T15:01:26.685Z,49.77
2022-10-19T15:03:53.927Z,49.85
2022-10-19T15:06:33.568Z,49.56
2022-10-19T15:09:04.974Z,49.77
2022-10-19T15:11:41.167Z,50.12
2022-10-19T15:14:13.166Z,50.47
2022-10-19T15:16:53.525Z,50.08
2022-10-19T15:19:39.374Z,50.72
2022-10-19T15:22:09.207Z,50.69
2022-10-19T15:24:36.906Z,51.11
2022-10-19T15:27:18.428Z,51.33
2022-10-19T15:30:06.929Z,51.75
2022-10-19T15:32:37.047Z,52.50
2022-10-19T15:35:28.906Z,52.72
2022-10-19T15:38:10.987Z,53.85
2022-10-19T15:40:44.126Z,53.91
2022-10-19T15:43:37.972Z,53.62
2022-10-19T15:46:06.928Z,53.85
2022-10-19T15:48:44.688Z,53.88
2022-10-19T15:51:23.768Z,54.00
2022-10-19T15:53:58.026Z,54.06
2022-10-19T15:56:27.788Z,53.96
2022-10-19T15:58:56.928Z,54.61
2022-10-19T16:01:27.003Z,54.73
2022-10-19T16:03:54.828Z,55.02
2022-10-19T16:06:26.054Z,55.22
2022-10-19T16:08:54.354Z,55.23
2022-10-19T16:11:23.406Z,55.26
2022-10-19T16:13:50.648Z,55.31
2022-10-19T16:16:24.712Z,55.79
2022-10-19T16:18:52.907Z,55.65
2022-10-19T16:21:20.368Z,56.09
2022-10-19T16:23:47.607Z,55.84
2022-10-19T16:26:15.886Z,56.36
2022-10-19T16:28:43.065Z,56.10
2022-10-19T16:31:11.116Z,56.30
2022-10-19T16:33:38.244Z,56.80
2022-10-19T16:36:07.049Z,56.89
2022-10-19T16:38:35.326Z,57.12
2022-10-19T16:41:10.607Z,57.33
2022-10-19T16:43:38.492Z,57.07
2022-10-19T16:46:05.945Z,57.26
2022-10-19T16:48:33.406Z,57.69
2022-10-19T16:51:06.920Z,57.68
2022-10-19T16:53:35.647Z,57.21
2022-10-19T16:56:11.086Z,57.40
2022-10-19T16:58:38.768Z,57.71
2022-10-19T17:01:10.607Z,58.05
2022-10-19T17:03:38.007Z,57.66
2022-10-19T17:06:06.390Z,57.72
2022-10-19T17:09:02.653Z,57.84
2022-10-19T17:11:24.948Z,57.76
2022-10-19T17:13:54.269Z,58.09
2022-10-19T17:16:22.586Z,57.81
2022-10-19T17:18:50.548Z,58.19
2022-10-19T17:21:22.886Z,57.51
2022-10-19T17:23:58.446Z,57.74
2022-10-19T17:26:38.054Z,57.79
2022-10-19T17:29:06.606Z,57.65
2022-10-19T17:31:34.208Z,57.55
2022-10-19T17:34:02.115Z,58.09
2022-10-19T17:36:36.487Z,58.00
2022-10-19T17:39:10.229Z,57.93
2022-10-19T17:41:37.549Z,58.22
2022-10-19T17:44:05.689Z,58.29
2022-10-19T17:46:35.173Z,58.23
2022-10-19T17:49:02.326Z,58.38
2022-10-19T17:51:32.286Z,58.82
2022-10-19T17:54:02.326Z,58.62
2022-10-19T17:56:29.988Z,58.80
2022-10-19T17:58:58.108Z,58.76
2022-10-19T18:01:26.288Z,58.95
2022-10-19T18:03:53.860Z,59.20
2022-10-19T18:06:31.690Z,59.47
2022-10-19T18:09:00.661Z,59.16
2022-10-19T18:11:42.211Z,59.08
2022-10-19T18:14:10.630Z,59.28
2022-10-19T18:16:45.583Z,59.50
2022-10-19T18:19:15.092Z,59.47
2022-10-19T18:21:43.685Z,59.88
2022-10-19T18:24:19.894Z,59.83
2022-10-19T18:26:48.646Z,60.05
2022-10-19T18:29:17.572Z,59.93
2022-10-19T18:31:44.809Z,59.54
2022-10-19T18:34:16.350Z,60.01
2022-10-19T18:36:43.826Z,59.97
2022-10-19T18:39:12.009Z,59.84
2022-10-19T18:41:39.225Z,60.12
2022-10-19T18:44:07.506Z,59.99
2022-10-19T18:46:36.747Z,60.08
2022-10-19T18:49:05.808Z,60.12
2022-10-19T18:51:33.308Z,60.10
2022-10-19T18:54:00.825Z,60.18
2022-10-19T18:56:29.588Z,59.93
2022-10-19T18:58:57.157Z,59.67
2022-10-19T19:01:29.052Z,60.17
2022-10-19T19:03:57.926Z,60.08
2022-10-19T19:06:29.189Z,60.23
2022-10-19T19:08:58.075Z,60.26
2022-10-19T19:11:29.588Z,60.48
2022-10-19T19:14:23.105Z,60.60
2022-10-19T19:16:50.368Z,60.79
2022-10-19T19:19:19.810Z,60.79
2022-10-19T19:21:47.673Z,60.95
2022-10-19T19:24:18.138Z,60.69
2022-10-19T19:26:48.649Z,60.90
2022-10-19T19:29:17.252Z,61.14
2022-10-19T19:31:44.650Z,61.28
2022-10-19T19:34:11.990Z,61.31
2022-10-19T19:39:28.747Z,61.23
2022-10-19T19:41:55.785Z,60.36
2022-10-19T19:44:22.938Z,61.16
2022-10-19T19:46:50.048Z,60.75
2022-10-19T19:49:17.129Z,60.17
2022-10-19T19:51:44.232Z,60.00
2022-10-19T19:54:11.868Z,59.96
2022-10-19T19:56:40.272Z,59.75
2022-10-19T19:59:07.331Z,59.45
2022-10-19T20:01:34.524Z,59.75
2022-10-19T20:06:49.747Z,59.81
2022-10-19T20:09:16.866Z,59.86
2022-10-19T20:11:44.327Z,59.79
2022-10-19T20:14:12.548Z,59.52
2022-10-19T20:16:39.769Z,59.13
2022-10-19T20:19:10.484Z,58.58
2022-10-19T20:21:38.068Z,58.31
2022-10-19T20:24:05.571Z,57.73
2022-10-19T20:26:32.670Z,57.78
2022-10-19T20:29:01.688Z,57.98
2022-10-19T20:31:30.048Z,57.79
2022-10-19T20:33:57.146Z,56.89
2022-10-19T20:36:25.974Z,56.85
2022-10-19T20:38:56.047Z,57.10
2022-10-19T20:41:25.287Z,56.38
2022-10-19T20:43:53.908Z,56.80
2022-10-19T20:46:24.068Z,56.11
2022-10-19T20:48:51.786Z,55.68
2022-10-19T20:51:23.030Z,55.87
2022-10-19T20:53:51.865Z,56.25
2022-10-19T20:56:23.267Z,55.90
2022-10-19T20:58:58.765Z,56.09
2022-10-19T21:01:26.768Z,55.90
2022-10-19T21:03:56.526Z,55.94
2022-10-19T21:06:25.790Z,55.82
2022-10-19T21:08:53.613Z,55.46
2022-10-19T21:11:23.665Z,55.29
2022-10-19T21:13:59.927Z,55.11
2022-10-19T21:16:28.627Z,55.33
2022-10-19T21:18:56.432Z,55.57
2022-10-19T21:21:27.488Z,54.97
2022-10-19T21:24:00.553Z,54.68
2022-10-19T21:26:28.928Z,54.66
2022-10-19T21:28:56.655Z,54.87
2022-10-19T21:31:25.187Z,55.20
2022-10-19T21:33:52.947Z,54.82
2022-10-19T21:36:21.730Z,54.90
2022-10-19T21:38:49.005Z,54.58
2022-10-19T21:41:20.913Z,55.13
2022-10-19T21:43:51.025Z,54.68
2022-10-19T21:46:20.646Z,54.73
2022-10-19T21:48:48.308Z,54.14
2022-10-19T21:51:30.668Z,54.61
2022-10-19T21:53:58.077Z,54.11
2022-10-19T21:56:25.126Z,54.27
2022-10-19T21:58:53.967Z,54.09
2022-10-19T22:01:24.353Z,53.82
2022-10-19T22:04:10.725Z,54.08
2022-10-19T22:06:37.889Z,53.59
2022-10-19T22:09:06.954Z,53.55
2022-10-19T22:11:34.132Z,53.71
2022-10-19T22:14:03.189Z,54.03
2022-10-19T22:16:31.152Z,54.30
2022-10-19T22:18:58.372Z,53.85
2022-10-19T22:21:28.951Z,53.82
2022-10-19T22:23:58.789Z,53.83
2022-10-19T22:26:31.831Z,54.19
2022-10-19T22:29:01.332Z,54.23
2022-10-19T22:31:30.314Z,53.82
2022-10-19T22:33:57.941Z,53.28
2022-10-19T22:36:25.004Z,52.84
2022-10-19T22:38:51.929Z,53.21
2022-10-19T22:41:18.843Z,53.21
2022-10-19T22:43:45.849Z,53.29
2022-10-19T22:46:12.800Z,52.83
2022-10-19T22:48:39.680Z,53.38
2022-10-19T22:51:06.802Z,53.21
2022-10-19T22:53:33.780Z,53.39
2022-10-19T22:56:00.710Z,53.59
2022-10-19T22:58:27.749Z,53.26
2022-10-19T23:01:03.380Z,52.71
2022-10-19T23:03:30.571Z,52.80
2022-10-19T23:05:57.678Z,53.16
2022-10-19T23:08:24.987Z,53.18
2022-10-19T23:10:52.022Z,52.60
2022-10-19T23:13:18.942Z,52.49
2022-10-19T23:15:46.115Z,52.88
2022-10-19T23:18:13.371Z,52.32
2022-10-19T23:20:40.291Z,52.74
2022-10-19T23:23:07.572Z,52.75
2022-10-19T23:25:34.638Z,52.34
2022-10-19T23:28:01.591Z,53.14
2022-10-19T23:30:28.512Z,53.02
2022-10-19T23:32:55.491Z,53.08
2022-10-19T23:35:22.391Z,52.64
2022-10-19T23:37:49.343Z,53.12
2022-10-19T23:40:16.540Z,53.58
2022-10-19T23:42:43.461Z,53.39
2022-10-19T23:45:10.861Z,53.45
2022-10-19T23:47:38.238Z,53.98
2022-10-19T23:50:05.752Z,53.89
2022-10-19T23:52:32.636Z,54.06
2022-10-19T23:54:59.757Z,54.00
2022-10-19T23:57:26.681Z,54.26
2022-10-19T23:59:53.666Z,54.29
